Time;durP1;ratioP1;P1;durP2;ratioP2;P2;SDS_P1;SDS_P2;PMS_P1;PMS_P2;Temp;Humidity;BMP_temperature;BMP_pressure;BME280_temperature;BME280_humidity;BME280_pressure;Samples;Min_cycle;Max_cycle;Signal;HPM_P1;HPM_P2
2022/03/15 00:01:09;;;;;;;;;;;;;;;;;;5053884;28;967;-60
2022/03/15 00:03:35;;;;;;;;;;;;;;;;;;5054432;28;829;-60
2022/03/15 00:06:01;;;;;;;;;;;;;;;;;;5036694;28;860;-60
2022/03/15 00:08:26;;;;;;;;;;;;;;;;;;5054830;28;868;-60
2022/03/15 00:10:55;;;;;;;;;;;;;;;;;;5054481;28;904;-60
2022/03/15 00:13:21;;;;;;;;;;;;;;;;;;5054633;28;979;-60
2022/03/15 00:15:48;;;;;;;;;;;;;;;;;;5053584;28;1890;-60
2022/03/15 00:18:13;;;;;;;;;;;;;;;;;;5055001;28;809;-60
2022/03/15 00:20:38;;;;;;;;;;;;;;;;;;5053867;28;830;-60
2022/03/15 00:23:04;;;;;;;;;;;;;;;;;;5053133;28;908;-60
2022/03/15 00:25:30;;;;;;;;;;;;;;;;;;5053149;28;817;-60
2022/03/15 00:27:56;;;;;;;;;;;;;;;;;;5052739;28;907;-60
2022/03/15 00:30:22;;;;;;;;;;;;;;;;;;5053201;28;821;-60
2022/03/15 00:32:48;;;;;;;;;;;;;;;;;;5053056;28;876;-61
2022/03/15 00:35:16;;;;;;;;;;;;;;;;;;5053379;28;1963;-60
2022/03/15 00:37:46;;;;;;;;;;;;;;;;;;5053272;28;897;-60
2022/03/15 00:40:12;;;;;;;;;;;;;;;;;;5035221;28;801;-60
2022/03/15 00:42:38;;;;;;;;;;;;;;;;;;5053266;28;806;-60
2022/03/15 00:45:06;;;;;;;;;;;;;;;;;;5052736;28;872;-60
2022/03/15 00:47:31;;;;;;;;;;;;;;;;;;5053060;28;798;-60
2022/03/15 00:49:57;;;;;;;;;;;;;;;;;;5052221;28;862;-60
2022/03/15 00:52:22;;;;;;;;;;;;;;;;;;5052693;28;895;-60
2022/03/15 00:54:48;;;;;;;;;;;;;;;;;;5052591;28;1963;-60
2022/03/15 00:57:13;;;;;;;;;;;;;;;;;;5052916;28;991;-61
2022/03/15 00:59:38;;;;;;;;;;;;;;;;;;5052281;28;849;-60
2022/03/15 01:02:04;;;;;;;;;;;;;;;;;;5051867;28;923;-60
2022/03/15 01:04:29;;;;;;;;;;;;;;;;;;5052404;28;1070;-60
2022/03/15 01:06:54;;;;;;;;;;;;;;;;;;5051931;28;884;-60
2022/03/15 01:09:20;;;;;;;;;;;;;;;;;;5052588;28;821;-60
2022/03/15 01:11:45;;;;;;;;;;;;;;;;;;5034396;28;1350;-60
2022/03/15 01:14:11;;;;;;;;;;;;;;;;;;5033505;28;897;-60
2022/03/15 01:16:36;;;;;;;;;;;;;;;;;;5051899;28;1905;-60
2022/03/15 01:19:01;;;;;;;;;;;;;;;;;;5051560;28;991;-60
2022/03/15 01:21:28;;;;;;;;;;;;;;;;;;5052070;28;809;-60
2022/03/15 01:23:53;;;;;;;;;;;;;;;;;;5051504;28;836;-60
2022/03/15 01:26:18;;;;;;;;;;;;;;;;;;5051798;28;797;-60
2022/03/15 01:28:44;;;;;;;;;;;;;;;;;;5052014;28;872;-60
2022/03/15 01:31:11;;;;;;;;;;;;;;;;;;5032707;28;872;-60
2022/03/15 01:33:36;;;;;;;;;;;;;;;;;;5051869;28;939;-60
2022/03/15 01:36:02;;;;;;;;;;;;;;;;;;5051352;28;1910;-60
2022/03/15 01:38:27;;;;;;;;;;;;;;;;;;5051859;28;853;-60
2022/03/15 01:40:53;;;;;;;;;;;;;;;;;;5051596;28;1087;-60
2022/03/15 01:43:18;;;;;;;;;;;;;;;;;;5017312;28;1338;-60
2022/03/15 01:45:43;;;;;;;;;;;;;;;;;;5051903;28;813;-60
2022/03/15 01:48:09;;;;;;;;;;;;;;;;;;5051406;28;872;-60
2022/03/15 01:50:35;;;;;;;;;;;;;;;;;;5051650;28;1099;-60
2022/03/15 01:53:00;;;;;;;;;;;;;;;;;;5051386;28;907;-60
2022/03/15 01:55:26;;;;;;;;;;;;;;;;;;5051582;28;1929;-60
2022/03/15 01:57:51;;;;;;;;;;;;;;;;;;5051591;28;1003;-60
2022/03/15 02:00:17;;;;;;;;;;;;;;;;;;5051793;28;845;-60
2022/03/15 02:02:43;;;;;;;;;;;;;;;;;;5051792;28;832;-60
2022/03/15 02:05:09;;;;;;;;;;;;;;;;;;5051021;28;1292;-60
2022/03/15 02:07:34;;;;;;;;;;;;;;;;;;5051569;28;908;-60
2022/03/15 02:10:00;;;;;;;;;;;;;;;;;;5051385;28;833;-61
2022/03/15 02:12:25;;;;;;;;;;;;;;;;;;5051431;28;821;-60
2022/03/15 02:14:50;;;;;;;;;;;;;;;;;;5033464;28;1922;-60
2022/03/15 02:17:16;;;;;;;;;;;;;;;;;;5051581;28;900;-60
2022/03/15 02:19:43;;;;;;;;;;;;;;;;;;5051354;28;960;-60
2022/03/15 02:22:08;;;;;;;;;;;;;;;;;;5050874;28;877;-60
2022/03/15 02:24:34;;;;;;;;;;;;;;;;;;5051325;28;903;-60
2022/03/15 02:26:59;;;;;;;;;;;;;;;;;;5032823;28;931;-60
2022/03/15 02:29:25;;;;;;;;;;;;;;;;;;5051108;28;731;-60
2022/03/15 02:31:50;;;;;;;;;;;;;;;;;;5050530;28;865;-60
2022/03/15 02:34:16;;;;;;;;;;;;;;;;;;5032982;28;813;-60
2022/03/15 02:36:42;;;;;;;;;;;;;;;;;;5050940;28;1938;-60
2022/03/15 02:39:07;;;;;;;;;;;;;;;;;;5032962;28;857;-60
2022/03/15 02:41:33;;;;;;;;;;;;;;;;;;5051062;28;809;-60
2022/03/15 02:43:58;;;;;;;;;;;;;;;;;;5053979;28;907;-60
2022/03/15 02:46:30;;;;;;;;;;;;;;;;;;5054527;28;860;-60
2022/03/15 02:48:56;;;;;;;;;;;;;;;;;;5054737;28;837;-60
2022/03/15 02:51:22;;;;;;;;;;;;;;;;;;5054702;28;793;-60
2022/03/15 02:53:47;;;;;;;;;;;;;;;;;;5070332;28;920;-60
2022/03/15 02:56:12;;;;;;;;;;;;;;;;;;5054383;28;1906;-60
2022/03/15 02:58:41;;;;;;;;;;;;;;;;;;5054911;28;872;-60
2022/03/15 03:01:06;;;;;;;;;;;;;;;;;;5054610;28;832;-60
2022/03/15 03:03:32;;;;;;;;;;;;;;;;;;5054525;28;825;-60
2022/03/15 03:05:57;;;;;;;;;;;;;;;;;;5054132;28;1442;-60
2022/03/15 03:08:25;;;;;;;;;;;;;;;;;;5054032;28;828;-60
2022/03/15 03:10:52;;;;;;;;;;;;;;;;;;5054128;28;880;-60
2022/03/15 03:13:18;;;;;;;;;;;;;;;;;;5054050;28;848;-60
2022/03/15 03:15:43;;;;;;;;;;;;;;;;;;5036322;28;1932;-60
2022/03/15 03:18:09;;;;;;;;;;;;;;;;;;5053916;28;888;-60
2022/03/15 03:20:35;;;;;;;;;;;;;;;;;;5054110;28;888;-60
2022/03/15 03:23:01;;;;;;;;;;;;;;;;;;5054023;28;852;-60
2022/03/15 03:25:30;;;;;;;;;;;;;;;;;;5053464;28;822;-60
2022/03/15 03:27:56;;;;;;;;;;;;;;;;;;5053542;28;817;-60
2022/03/15 03:30:22;;;;;;;;;;;;;;;;;;5054049;28;865;-60
2022/03/15 03:32:47;;;;;;;;;;;;;;;;;;5054186;28;1754;-60
2022/03/15 03:35:12;;;;;;;;;;;;;;;;;;5053341;28;1965;-60
2022/03/15 03:37:38;;;;;;;;;;;;;;;;;;5054087;28;880;-60
2022/03/15 03:40:07;;;;;;;;;;;;;;;;;;5053621;28;1021;-61
2022/03/15 03:42:33;;;;;;;;;;;;;;;;;;5035897;28;1228;-60
2022/03/15 03:44:58;;;;;;;;;;;;;;;;;;5053763;28;904;-60
2022/03/15 03:47:24;;;;;;;;;;;;;;;;;;5053789;28;892;-60
2022/03/15 03:49:49;;;;;;;;;;;;;;;;;;5054145;28;895;-60
2022/03/15 03:52:15;;;;;;;;;;;;;;;;;;5054278;28;942;-60
2022/03/15 03:54:40;;;;;;;;;;;;;;;;;;5035285;28;1901;-60
2022/03/15 03:57:05;;;;;;;;;;;;;;;;;;5053685;28;881;-60
2022/03/15 03:59:31;;;;;;;;;;;;;;;;;;5053497;28;817;-61
2022/03/15 04:01:56;;;;;;;;;;;;;;;;;;5053675;28;1046;-60
2022/03/15 04:04:21;;;;;;;;;;;;;;;;;;5053178;28;1132;-60
2022/03/15 04:06:47;;;;;;;;;;;;;;;;;;5053586;28;893;-60
2022/03/15 04:09:12;;;;;;;;;;;;;;;;;;5052848;28;876;-60
2022/03/15 04:11:41;;;;;;;;;;;;;;;;;;5068283;28;749;-60
2022/03/15 04:14:07;;;;;;;;;;;;;;;;;;5053308;28;892;-60
2022/03/15 04:16:32;;;;;;;;;;;;;;;;;;5052984;28;1918;-60
2022/03/15 04:18:58;;;;;;;;;;;;;;;;;;5053273;28;833;-60
2022/03/15 04:21:24;;;;;;;;;;;;;;;;;;5053167;28;904;-60
2022/03/15 04:23:54;;;;;;;;;;;;;;;;;;5053411;28;880;-60
2022/03/15 04:26:19;;;;;;;;;;;;;;;;;;5053495;28;905;-60
2022/03/15 04:28:44;;;;;;;;;;;;;;;;;;5053414;28;1006;-60
2022/03/15 04:31:09;;;;;;;;;;;;;;;;;;5053323;28;816;-60
2022/03/15 04:33:35;;;;;;;;;;;;;;;;;;5053122;28;876;-60
2022/03/15 04:36:00;;;;;;;;;;;;;;;;;;5053005;28;1906;-60
2022/03/15 04:38:25;;;;;;;;;;;;;;;;;;5052812;28;1168;-60
2022/03/15 04:40:50;;;;;;;;;;;;;;;;;;5053118;28;828;-60
2022/03/15 04:43:16;;;;;;;;;;;;;;;;;;5052506;28;844;-60
2022/03/15 04:45:41;;;;;;;;;;;;;;;;;;5053178;28;833;-61
2022/03/15 04:48:07;;;;;;;;;;;;;;;;;;5052443;28;808;-60
2022/03/15 04:50:32;;;;;;;;;;;;;;;;;;5052457;28;836;-60
2022/03/15 04:52:57;;;;;;;;;;;;;;;;;;5052922;28;817;-60
2022/03/15 04:55:23;;;;;;;;;;;;;;;;;;5052258;28;1959;-60
2022/03/15 04:57:48;;;;;;;;;;;;;;;;;;5052474;28;882;-60
2022/03/15 05:00:14;;;;;;;;;;;;;;;;;;5052263;28;1070;-60
2022/03/15 05:02:44;;;;;;;;;;;;;;;;;;5052344;28;821;-60
2022/03/15 05:05:09;;;;;;;;;;;;;;;;;;5051121;28;1373;-60
2022/03/15 05:07:35;;;;;;;;;;;;;;;;;;5052040;28;840;-60
2022/03/15 05:12:44;;;;;;;;;;;;;;;;;;5037375;28;620;-60
2022/03/15 05:15:09;;;;;;;;;;;;;;;;;;5051937;28;1914;-60
2022/03/15 05:17:36;;;;;;;;;;;;;;;;;;5051835;28;927;-60
2022/03/15 05:20:02;;;;;;;;;;;;;;;;;;5052147;28;903;-60
2022/03/15 05:22:28;;;;;;;;;;;;;;;;;;5052003;28;914;-60
2022/03/15 05:24:53;;;;;;;;;;;;;;;;;;5034564;28;900;-60
2022/03/15 05:27:18;;;;;;;;;;;;;;;;;;5052177;28;876;-60
2022/03/15 05:29:43;;;;;;;;;;;;;;;;;;5052029;28;939;-60
2022/03/15 05:32:09;;;;;;;;;;;;;;;;;;5051765;28;770;-60
2022/03/15 05:34:34;;;;;;;;;;;;;;;;;;5051681;28;1969;-60
2022/03/15 05:36:59;;;;;;;;;;;;;;;;;;5051613;28;864;-60
2022/03/15 05:39:24;;;;;;;;;;;;;;;;;;5051350;28;991;-60
2022/03/15 05:41:50;;;;;;;;;;;;;;;;;;5052075;28;833;-60
2022/03/15 05:44:16;;;;;;;;;;;;;;;;;;5017617;28;995;-60
2022/03/15 05:46:41;;;;;;;;;;;;;;;;;;5033859;28;944;-60
2022/03/15 05:49:06;;;;;;;;;;;;;;;;;;5050582;28;1259;-60
2022/03/15 05:51:31;;;;;;;;;;;;;;;;;;5051055;28;1217;-60
2022/03/15 05:53:57;;;;;;;;;;;;;;;;;;5051641;28;857;-60
2022/03/15 05:56:23;;;;;;;;;;;;;;;;;;5051289;28;1918;-60
2022/03/15 05:58:49;;;;;;;;;;;;;;;;;;5066772;28;1723;-60
2022/03/15 06:01:16;;;;;;;;;;;;;;;;;;5051687;28;751;-60
2022/03/15 06:03:42;;;;;;;;;;;;;;;;;;5051240;28;1213;-61
2022/03/15 06:06:07;;;;;;;;;;;;;;;;;;5051154;28;856;-60
2022/03/15 06:08:32;;;;;;;;;;;;;;;;;;5051273;28;857;-60
2022/03/15 06:11:00;;;;;;;;;;;;;;;;;;5051523;28;939;-60
2022/03/15 06:13:27;;;;;;;;;;;;;;;;;;5051637;28;931;-60
2022/03/15 06:15:52;;;;;;;;;;;;;;;;;;5033526;28;1914;-60
2022/03/15 06:18:17;;;;;;;;;;;;;;;;;;5051410;28;892;-60
2022/03/15 06:20:42;;;;;;;;;;;;;;;;;;5051127;28;995;-60
2022/03/15 06:23:08;;;;;;;;;;;;;;;;;;5051065;28;975;-59
2022/03/15 06:25:33;;;;;;;;;;;;;;;;;;5051057;28;990;-60
2022/03/15 06:27:58;;;;;;;;;;;;;;;;;;5051166;28;824;-59
2022/03/15 06:30:24;;;;;;;;;;;;;;;;;;5051267;28;821;-59
2022/03/15 06:32:49;;;;;;;;;;;;;;;;;;5051091;28;828;-60
2022/03/15 06:35:15;;;;;;;;;;;;;;;;;;5050925;28;1894;-59
2022/03/15 06:37:44;;;;;;;;;;;;;;;;;;5051200;28;875;-60
2022/03/15 06:40:10;;;;;;;;;;;;;;;;;;5051528;28;880;-60
2022/03/15 06:42:37;;;;;;;;;;;;;;;;;;5051106;28;979;-59
2022/03/15 06:45:03;;;;;;;;;;;;;;;;;;5050913;28;824;-61
2022/03/15 06:47:28;;;;;;;;;;;;;;;;;;5050852;28;979;-60
2022/03/15 06:49:53;;;;;;;;;;;;;;;;;;5050926;28;1006;-60
2022/03/15 06:52:19;;;;;;;;;;;;;;;;;;5033079;28;992;-60
2022/03/15 06:54:44;;;;;;;;;;;;;;;;;;5050407;28;1934;-60
2022/03/15 06:57:10;;;;;;;;;;;;;;;;;;5050839;28;999;-60
2022/03/15 06:59:35;;;;;;;;;;;;;;;;;;5050613;28;892;-60
2022/03/15 07:02:00;;;;;;;;;;;;;;;;;;5032789;28;885;-60
2022/03/15 07:04:26;;;;;;;;;;;;;;;;;;5051029;28;1024;-60
2022/03/15 07:06:51;;;;;;;;;;;;;;;;;;5050728;28;892;-60
2022/03/15 07:09:16;;;;;;;;;;;;;;;;;;5050949;28;939;-60
2022/03/15 07:11:42;;;;;;;;;;;;;;;;;;5050849;28;769;-60
2022/03/15 07:14:07;;;;;;;;;;;;;;;;;;5050367;28;1071;-61
2022/03/15 07:16:32;;;;;;;;;;;;;;;;;;5050510;28;1973;-60
2022/03/15 07:18:58;;;;;;;;;;;;;;;;;;5051132;28;1685;-61
2022/03/15 07:21:23;;;;;;;;;;;;;;;;;;5050359;28;808;-60
2022/03/15 07:23:48;;;;;;;;;;;;;;;;;;5050909;28;916;-60
2022/03/15 07:26:14;;;;;;;;;;;;;;;;;;5050222;28;785;-60
2022/03/15 07:28:39;;;;;;;;;;;;;;;;;;5051695;28;987;-60
2022/03/15 07:31:05;;;;;;;;;;;;;;;;;;5053873;28;1047;-60
2022/03/15 07:33:30;;;;;;;;;;;;;;;;;;5054257;28;995;-61
2022/03/15 07:35:55;;;;;;;;;;;;;;;;;;5053697;28;1967;-60
2022/03/15 07:38:21;;;;;;;;;;;;;;;;;;5053810;28;971;-60
2022/03/15 07:40:46;;;;;;;;;;;;;;;;;;5053823;28;1169;-60
2022/03/15 07:43:12;;;;;;;;;;;;;;;;;;5035775;28;884;-61
2022/03/15 07:45:37;;;;;;;;;;;;;;;;;;5053481;28;750;-60
2022/03/15 07:48:04;;;;;;;;;;;;;;;;;;5053561;28;849;-60
2022/03/15 07:50:29;;;;;;;;;;;;;;;;;;5054043;28;856;-60
2022/03/15 07:52:55;;;;;;;;;;;;;;;;;;5053542;28;963;-60
2022/03/15 07:55:23;;;;;;;;;;;;;;;;;;5054224;28;1959;-60
2022/03/15 07:57:49;;;;;;;;;;;;;;;;;;5036028;28;965;-60
2022/03/15 08:00:15;;;;;;;;;;;;;;;;;;5053503;28;967;-61
2022/03/15 08:02:40;;;;;;;;;;;;;;;;;;5048843;28;1208;-60
2022/03/15 08:05:06;;;;;;;;;;;;;;;;;;5031712;28;1212;-61
2022/03/15 08:07:33;;;;;;;;;;;;;;;;;;5032868;28;1161;-61
2022/03/15 08:09:58;;;;;;;;;;;;;;;;;;5033738;28;868;-60
2022/03/15 08:12:24;;;;;;;;;;;;;;;;;;5033676;28;929;-60
2022/03/15 08:14:49;;;;;;;;;;;;;;;;;;5033522;28;1954;-60
2022/03/15 08:17:15;;;;;;;;;;;;;;;;;;5033461;28;892;-60
2022/03/15 08:19:40;;;;;;;;;;;;;;;;;;5033623;28;813;-60
2022/03/15 08:22:06;;;;;;;;;;;;;;;;;;5033349;28;948;-60
2022/03/15 08:24:32;;;;;;;;;;;;;;;;;;5033679;28;877;-60
2022/03/15 08:26:57;;;;;;;;;;;;;;;;;;5033163;28;919;-60
2022/03/15 08:29:23;;;;;;;;;;;;;;;;;;5015550;28;1580;-60
2022/03/15 08:31:48;;;;;;;;;;;;;;;;;;5033070;28;868;-60
2022/03/15 08:34:13;;;;;;;;;;;;;;;;;;5033491;28;778;-61
2022/03/15 08:36:39;;;;;;;;;;;;;;;;;;5033028;28;1914;-60
2022/03/15 08:39:04;;;;;;;;;;;;;;;;;;5032621;28;876;-60
2022/03/15 08:41:30;;;;;;;;;;;;;;;;;;5033438;28;948;-60
2022/03/15 08:43:55;;;;;;;;;;;;;;;;;;5032504;28;824;-60
2022/03/15 08:46:21;;;;;;;;;;;;;;;;;;5032785;28;825;-60
2022/03/15 08:48:46;;;;;;;;;;;;;;;;;;5032677;28;987;-59
2022/03/15 08:51:12;;;;;;;;;;;;;;;;;;5032939;28;920;-60
2022/03/15 08:53:37;;;;;;;;;;;;;;;;;;5033268;28;853;-60
2022/03/15 08:56:03;;;;;;;;;;;;;;;;;;5032040;28;1914;-60
2022/03/15 08:58:28;;;;;;;;;;;;;;;;;;5032877;28;821;-60
2022/03/15 09:00:53;;;;;;;;;;;;;;;;;;5032369;28;928;-60
2022/03/15 09:03:19;;;;;;;;;;;;;;;;;;5032529;28;815;-59
2022/03/15 09:05:44;;;;;;;;;;;;;;;;;;5032395;28;1232;-60
2022/03/15 09:08:09;;;;;;;;;;;;;;;;;;5032535;28;892;-60
2022/03/15 09:10:35;;;;;;;;;;;;;;;;;;5032784;28;880;-60
2022/03/15 09:13:00;;;;;;;;;;;;;;;;;;5032216;28;842;-60
2022/03/15 09:15:26;;;;;;;;;;;;;;;;;;5032327;28;1969;-61
2022/03/15 09:17:51;;;;;;;;;;;;;;;;;;5032074;28;1015;-60
2022/03/15 09:20:17;;;;;;;;;;;;;;;;;;5014426;28;884;-60
2022/03/15 09:22:42;;;;;;;;;;;;;;;;;;5032271;28;904;-60
2022/03/15 09:25:08;;;;;;;;;;;;;;;;;;5031651;28;900;-60
2022/03/15 09:27:33;;;;;;;;;;;;;;;;;;5032153;28;986;-60
2022/03/15 09:29:58;;;;;;;;;;;;;;;;;;5031474;28;975;-60
2022/03/15 09:32:24;;;;;;;;;;;;;;;;;;5031511;28;782;-60
2022/03/15 09:34:49;;;;;;;;;;;;;;;;;;5031934;28;1973;-60
2022/03/15 09:37:15;;;;;;;;;;;;;;;;;;5032161;28;1011;-60
2022/03/15 09:39:41;;;;;;;;;;;;;;;;;;5031558;28;1258;-60
2022/03/15 09:42:08;;;;;;;;;;;;;;;;;;5031484;28;857;-61
2022/03/15 09:44:34;;;;;;;;;;;;;;;;;;5031933;28;919;-61
2022/03/15 09:47:01;;;;;;;;;;;;;;;;;;5031269;28;1712;-61
2022/03/15 09:49:26;;;;;;;;;;;;;;;;;;5031257;28;818;-60
2022/03/15 09:51:53;;;;;;;;;;;;;;;;;;5031276;28;848;-61
2022/03/15 09:54:19;;;;;;;;;;;;;;;;;;5031344;28;991;-60
2022/03/15 09:56:45;;;;;;;;;;;;;;;;;;5031491;28;1981;-60
2022/03/15 09:59:15;;;;;;;;;;;;;;;;;;5031026;28;821;-60
2022/03/15 10:01:41;;;;;;;;;;;;;;;;;;5031074;28;861;-60
2022/03/15 10:04:08;;;;;;;;;;;;;;;;;;5030833;28;1236;-61
2022/03/15 10:06:33;;;;;;;;;;;;;;;;;;5031391;28;849;-60
2022/03/15 10:08:58;;;;;;;;;;;;;;;;;;5031261;28;833;-60
2022/03/15 10:11:24;;;;;;;;;;;;;;;;;;5031319;28;1002;-60
2022/03/15 10:13:50;;;;;;;;;;;;;;;;;;5031816;28;805;-60
2022/03/15 10:16:16;;;;;;;;;;;;;;;;;;5031254;28;1985;-60
2022/03/15 10:18:51;;;;;;;;;;;;;;;;;;5031820;28;902;-60
2022/03/15 10:21:17;;;;;;;;;;;;;;;;;;5031550;28;805;-60
2022/03/15 10:23:42;;;;;;;;;;;;;;;;;;5032037;28;967;-60
2022/03/15 10:26:08;;;;;;;;;;;;;;;;;;5031286;28;861;-59
2022/03/15 10:28:36;;;;;;;;;;;;;;;;;;5031621;28;873;-60
2022/03/15 10:31:03;;;;;;;;;;;;;;;;;;5031698;28;844;-60
2022/03/15 10:33:29;;;;;;;;;;;;;;;;;;5013708;28;818;-60
2022/03/15 10:35:54;;;;;;;;;;;;;;;;;;5031309;28;1898;-60
2022/03/15 10:38:20;;;;;;;;;;;;;;;;;;5013622;28;831;-60
2022/03/15 10:40:47;;;;;;;;;;;;;;;;;;5047109;28;880;-61
2022/03/15 10:43:17;;;;;;;;;;;;;;;;;;5012660;28;1414;-60
2022/03/15 10:46:01;;;;;;;;;;;;;;;;;;5031180;28;801;-59
2022/03/15 10:48:30;;;;;;;;;;;;;;;;;;5031158;28;872;-60
2022/03/15 10:51:00;;;;;;;;;;;;;;;;;;5031115;28;880;-60
2022/03/15 10:53:28;;;;;;;;;;;;;;;;;;5030927;28;1082;-61
2022/03/15 10:56:12;;;;;;;;;;;;;;;;;;5030796;28;1898;-61
2022/03/15 10:58:51;;;;;;;;;;;;;;;;;;5030870;28;1021;-60
2022/03/15 11:01:18;;;;;;;;;;;;;;;;;;5030783;28;967;-60
2022/03/15 11:03:53;;;;;;;;;;;;;;;;;;5032491;28;817;-60
2022/03/15 11:06:37;;;;;;;;;;;;;;;;;;5034423;28;1191;-59
2022/03/15 11:09:13;;;;;;;;;;;;;;;;;;5034686;28;1186;-60
2022/03/15 11:11:39;;;;;;;;;;;;;;;;;;5034726;28;908;-60
2022/03/15 11:14:05;;;;;;;;;;;;;;;;;;5034736;28;848;-60
2022/03/15 11:16:34;;;;;;;;;;;;;;;;;;5034623;28;1977;-61
2022/03/15 11:19:01;;;;;;;;;;;;;;;;;;5034720;28;901;-61
2022/03/15 11:21:27;;;;;;;;;;;;;;;;;;5034683;28;1169;-60
2022/03/15 11:23:55;;;;;;;;;;;;;;;;;;5034876;28;868;-60
2022/03/15 11:26:25;;;;;;;;;;;;;;;;;;5034358;28;801;-61
2022/03/15 11:28:51;;;;;;;;;;;;;;;;;;5034900;28;924;-61
2022/03/15 11:31:17;;;;;;;;;;;;;;;;;;5034218;28;893;-61
2022/03/15 11:33:47;;;;;;;;;;;;;;;;;;5034531;28;916;-60
2022/03/15 11:36:13;;;;;;;;;;;;;;;;;;5034028;28;1890;-61
2022/03/15 11:38:40;;;;;;;;;;;;;;;;;;5035006;28;821;-61
2022/03/15 11:41:06;;;;;;;;;;;;;;;;;;5033726;28;999;-60
2022/03/15 11:43:40;;;;;;;;;;;;;;;;;;5016337;28;869;-61
2022/03/15 11:46:23;;;;;;;;;;;;;;;;;;5033866;28;998;-61
2022/03/15 11:48:55;;;;;;;;;;;;;;;;;;5034709;28;837;-60
2022/03/15 11:51:27;;;;;;;;;;;;;;;;;;5034010;28;833;-60
2022/03/15 11:53:55;;;;;;;;;;;;;;;;;;5034263;28;868;-60
2022/03/15 11:56:35;;;;;;;;;;;;;;;;;;5033237;28;1955;-61
2022/03/15 11:59:00;;;;;;;;;;;;;;;;;;5033579;28;1224;-61
2022/03/15 12:01:28;;;;;;;;;;;;;;;;;;5033102;28;836;-61
2022/03/15 12:03:54;;;;;;;;;;;;;;;;;;5033582;28;926;-60
2022/03/15 12:06:23;;;;;;;;;;;;;;;;;;5033927;28;1205;-61
2022/03/15 12:08:57;;;;;;;;;;;;;;;;;;5033129;28;876;-60
2022/03/15 12:11:35;;;;;;;;;;;;;;;;;;5033464;28;870;-60
2022/03/15 12:14:07;;;;;;;;;;;;;;;;;;5033386;28;880;-61
2022/03/15 12:16:37;;;;;;;;;;;;;;;;;;5033192;28;1981;-60
2022/03/15 12:19:35;;;;;;;;;;;;;;;;;;5032411;28;1482;-60
2022/03/15 12:22:02;;;;;;;;;;;;;;;;;;5033970;28;888;-61
2022/03/15 12:24:37;;;;;;;;;;;;;;;;;;5033452;28;816;-61
2022/03/15 12:27:06;;;;;;;;;;;;;;;;;;5033831;28;916;-61
2022/03/15 12:29:32;;;;;;;;;;;;;;;;;;5033263;28;1031;-60
2022/03/15 12:32:10;;;;;;;;;;;;;;;;;;5033890;28;941;-61
2022/03/15 12:34:35;;;;;;;;;;;;;;;;;;5033082;28;861;-60
2022/03/15 12:37:01;;;;;;;;;;;;;;;;;;5032947;28;1972;-61
2022/03/15 12:39:27;;;;;;;;;;;;;;;;;;5033051;28;841;-60
2022/03/15 12:42:03;;;;;;;;;;;;;;;;;;5033002;28;858;-60
2022/03/15 12:44:43;;;;;;;;;;;;;;;;;;5032649;28;790;-60
2022/03/15 12:47:09;;;;;;;;;;;;;;;;;;5032263;28;896;-60
2022/03/15 12:49:35;;;;;;;;;;;;;;;;;;5032766;28;920;-60
2022/03/15 12:52:13;;;;;;;;;;;;;;;;;;5032732;28;774;-60
2022/03/15 12:54:40;;;;;;;;;;;;;;;;;;5032144;28;1243;-60
2022/03/15 12:57:10;;;;;;;;;;;;;;;;;;5032602;28;1963;-60
2022/03/15 12:59:36;;;;;;;;;;;;;;;;;;5032528;28;899;-60
2022/03/15 13:02:03;;;;;;;;;;;;;;;;;;5014962;28;873;-60
2022/03/15 13:04:30;;;;;;;;;;;;;;;;;;5032040;28;1402;-60
2022/03/15 13:06:56;;;;;;;;;;;;;;;;;;5014498;28;915;-60
2022/03/15 13:09:26;;;;;;;;;;;;;;;;;;5032733;28;1181;-60
2022/03/15 13:11:53;;;;;;;;;;;;;;;;;;5032203;28;1161;-60
2022/03/15 13:14:36;;;;;;;;;;;;;;;;;;5032435;28;876;-60
2022/03/15 13:17:03;;;;;;;;;;;;;;;;;;5032178;28;1967;-59
2022/03/15 13:19:32;;;;;;;;;;;;;;;;;;5032264;28;798;-59
2022/03/15 13:21:58;;;;;;;;;;;;;;;;;;5032179;28;1224;-59
2022/03/15 13:24:28;;;;;;;;;;;;;;;;;;5032250;28;868;-59
2022/03/15 13:26:57;;;;;;;;;;;;;;;;;;5032024;28;880;-60
2022/03/15 13:29:26;;;;;;;;;;;;;;;;;;5031793;28;838;-59
2022/03/15 13:31:52;;;;;;;;;;;;;;;;;;5031833;28;802;-59
2022/03/15 13:34:21;;;;;;;;;;;;;;;;;;5031620;28;913;-59
2022/03/15 13:36:47;;;;;;;;;;;;;;;;;;5032428;28;1961;-59
2022/03/15 13:39:12;;;;;;;;;;;;;;;;;;5031921;28;948;-60
2022/03/15 13:41:42;;;;;;;;;;;;;;;;;;5032445;28;821;-59
2022/03/15 13:44:12;;;;;;;;;;;;;;;;;;5031795;28;943;-59
2022/03/15 13:46:39;;;;;;;;;;;;;;;;;;5032120;28;923;-60
2022/03/15 13:49:04;;;;;;;;;;;;;;;;;;5032490;28;912;-59
2022/03/15 13:51:35;;;;;;;;;;;;;;;;;;5031723;28;907;-59
2022/03/15 13:54:08;;;;;;;;;;;;;;;;;;5032394;28;872;-59
2022/03/15 13:56:40;;;;;;;;;;;;;;;;;;5031280;28;1961;-61
2022/03/15 13:59:08;;;;;;;;;;;;;;;;;;5014053;28;837;-61
2022/03/15 14:01:37;;;;;;;;;;;;;;;;;;5031283;28;876;-61
2022/03/15 14:04:03;;;;;;;;;;;;;;;;;;5032080;28;904;-60
2022/03/15 14:06:35;;;;;;;;;;;;;;;;;;5031323;28;1050;-61
2022/03/15 14:09:00;;;;;;;;;;;;;;;;;;5031646;28;875;-60
2022/03/15 14:11:35;;;;;;;;;;;;;;;;;;5031040;28;899;-61
2022/03/15 14:14:08;;;;;;;;;;;;;;;;;;5015165;28;844;-61
2022/03/15 14:16:48;;;;;;;;;;;;;;;;;;5030914;28;1906;-61
2022/03/15 14:19:18;;;;;;;;;;;;;;;;;;5031246;28;869;-60
2022/03/15 14:21:45;;;;;;;;;;;;;;;;;;5031063;28;844;-60
2022/03/15 14:24:21;;;;;;;;;;;;;;;;;;5031113;28;904;-60
2022/03/15 14:26:48;;;;;;;;;;;;;;;;;;5013903;28;841;-60
2022/03/15 14:29:19;;;;;;;;;;;;;;;;;;5031091;28;821;-60
2022/03/15 14:31:45;;;;;;;;;;;;;;;;;;5031204;28;952;-60
2022/03/15 14:34:12;;;;;;;;;;;;;;;;;;5013360;28;888;-60
2022/03/15 14:36:37;;;;;;;;;;;;;;;;;;5030477;28;1890;-60
2022/03/15 14:39:10;;;;;;;;;;;;;;;;;;5037378;28;900;-60
2022/03/15 14:41:35;;;;;;;;;;;;;;;;;;5037327;28;884;-60
2022/03/15 14:44:01;;;;;;;;;;;;;;;;;;5038235;28;829;-59
2022/03/15 14:46:27;;;;;;;;;;;;;;;;;;5037204;28;904;-59
2022/03/15 14:48:54;;;;;;;;;;;;;;;;;;5037469;28;873;-60
2022/03/15 14:51:20;;;;;;;;;;;;;;;;;;5037698;28;851;-59
2022/03/15 14:53:46;;;;;;;;;;;;;;;;;;5037652;28;1074;-59
2022/03/15 14:56:12;;;;;;;;;;;;;;;;;;5037405;28;1902;-60
2022/03/15 14:58:38;;;;;;;;;;;;;;;;;;5037209;28;926;-59
2022/03/15 15:01:04;;;;;;;;;;;;;;;;;;5037609;28;885;-59
2022/03/15 15:03:30;;;;;;;;;;;;;;;;;;5036712;28;835;-59
2022/03/15 15:05:57;;;;;;;;;;;;;;;;;;5036993;28;1428;-60
2022/03/15 15:08:25;;;;;;;;;;;;;;;;;;5019907;28;938;-60
2022/03/15 15:10:51;;;;;;;;;;;;;;;;;;5037158;28;897;-59
2022/03/15 15:13:16;;;;;;;;;;;;;;;;;;5037767;28;837;-59
2022/03/15 15:15:46;;;;;;;;;;;;;;;;;;5036901;28;1980;-59
2022/03/15 15:18:11;;;;;;;;;;;;;;;;;;5037532;28;836;-60
2022/03/15 15:20:40;;;;;;;;;;;;;;;;;;5037108;28;809;-59
2022/03/15 15:23:07;;;;;;;;;;;;;;;;;;5037070;28;861;-60
2022/03/15 15:25:32;;;;;;;;;;;;;;;;;;5037016;28;1079;-59
2022/03/15 15:27:59;;;;;;;;;;;;;;;;;;5037512;28;793;-59
2022/03/15 15:30:25;;;;;;;;;;;;;;;;;;5037591;28;759;-59
2022/03/15 15:32:51;;;;;;;;;;;;;;;;;;5020224;28;790;-59
2022/03/15 15:35:16;;;;;;;;;;;;;;;;;;5019801;28;1906;-60
2022/03/15 15:37:49;;;;;;;;;;;;;;;;;;5037804;28;904;-59
2022/03/15 15:40:17;;;;;;;;;;;;;;;;;;5038176;28;928;-60
2022/03/15 15:42:43;;;;;;;;;;;;;;;;;;5037929;28;832;-60
2022/03/15 15:45:12;;;;;;;;;;;;;;;;;;5038366;28;937;-61
2022/03/15 15:47:42;;;;;;;;;;;;;;;;;;5038331;28;812;-60
2022/03/15 15:50:11;;;;;;;;;;;;;;;;;;5035041;28;909;-59
2022/03/15 15:52:37;;;;;;;;;;;;;;;;;;5035512;28;1153;-59
2022/03/15 15:55:04;;;;;;;;;;;;;;;;;;5015801;28;1906;-59
2022/03/15 15:57:29;;;;;;;;;;;;;;;;;;5016993;28;918;-59
2022/03/15 15:59:57;;;;;;;;;;;;;;;;;;5034596;28;845;-60
2022/03/15 16:02:22;;;;;;;;;;;;;;;;;;5034421;28;813;-60
2022/03/15 16:04:48;;;;;;;;;;;;;;;;;;5034016;28;1175;-60
2022/03/15 16:07:27;;;;;;;;;;;;;;;;;;5016483;28;833;-60
2022/03/15 16:09:53;;;;;;;;;;;;;;;;;;5033808;28;904;-59
2022/03/15 16:12:18;;;;;;;;;;;;;;;;;;5016142;28;1350;-60
2022/03/15 16:14:44;;;;;;;;;;;;;;;;;;5033597;28;817;-60
2022/03/15 16:17:09;;;;;;;;;;;;;;;;;;5033032;28;1902;-59
2022/03/15 16:19:35;;;;;;;;;;;;;;;;;;5032263;28;807;-60
2022/03/15 16:22:01;;;;;;;;;;;;;;;;;;5033264;28;912;-59
2022/03/15 16:24:26;;;;;;;;;;;;;;;;;;5033167;28;923;-60
2022/03/15 16:26:52;;;;;;;;;;;;;;;;;;5033132;28;1241;-59
2022/03/15 16:29:17;;;;;;;;;;;;;;;;;;5033320;28;987;-59
2022/03/15 16:31:42;;;;;;;;;;;;;;;;;;5033322;28;1387;-60
2022/03/15 16:34:08;;;;;;;;;;;;;;;;;;5033189;28;806;-59
2022/03/15 16:36:34;;;;;;;;;;;;;;;;;;5032873;28;1969;-59
2022/03/15 16:39:00;;;;;;;;;;;;;;;;;;5032530;28;880;-59
2022/03/15 16:41:27;;;;;;;;;;;;;;;;;;5032888;28;864;-59
2022/03/15 16:43:52;;;;;;;;;;;;;;;;;;5033031;28;860;-59
2022/03/15 16:46:17;;;;;;;;;;;;;;;;;;5033136;28;954;-60
2022/03/15 16:48:43;;;;;;;;;;;;;;;;;;5032722;28;944;-59
2022/03/15 16:51:09;;;;;;;;;;;;;;;;;;5033169;28;880;-59
2022/03/15 16:53:34;;;;;;;;;;;;;;;;;;5032898;28;1042;-59
2022/03/15 16:56:01;;;;;;;;;;;;;;;;;;5014986;28;1910;-59
2022/03/15 17:01:11;;;;;;;;;;;;;;;;;;5016645;28;739;-59
2022/03/15 17:06:20;;;;;;;;;;;;;;;;;;5032177;28;1258;-59
2022/03/15 17:08:46;;;;;;;;;;;;;;;;;;5030729;28;1333;-59
2022/03/15 17:11:11;;;;;;;;;;;;;;;;;;5032429;28;888;-59
2022/03/15 17:13:37;;;;;;;;;;;;;;;;;;5032155;28;912;-59
2022/03/15 17:16:03;;;;;;;;;;;;;;;;;;5032126;28;1917;-63
2022/03/15 17:18:29;;;;;;;;;;;;;;;;;;5032065;28;861;-60
2022/03/15 17:20:55;;;;;;;;;;;;;;;;;;5031834;28;912;-60